Terminal Aerodrome Forecast
Issued by NWS

Home | Current Version | Previous Version | Text Only | Print | Product List | Glossary On
Versions: 1 2 3 4 5 6 7 8 9 10 11 12 13 14
000
FTUS45 KSLC 201120
TAFENV
TAF
KENV 201120Z 2012/2112 VRB05KT P6SM SCT060 BKN120
     FM201600 33012G20KT P6SM FEW080 SCT120
     FM210300 VRB04KT P6SM SKC
      AMD LTD TO CLD VIS AND WIND=

USA.gov is the U.S. government's official web portal to all federal, state and local government web resources and services.